createdAt,value
2018-07-03T00:05:47.653Z,79.7
2018-07-03T00:16:03.258Z,80.2
2018-07-03T00:26:18.218Z,81.2
2018-07-03T00:36:32.870Z,78.6
2018-07-03T00:46:47.667Z,78.4
2018-07-03T00:57:01.891Z,77.5
2018-07-03T01:07:15.878Z,73.5
2018-07-03T01:17:30.370Z,72.7
2018-07-03T01:27:44.422Z,71.9
2018-07-03T01:37:59.564Z,77.5
2018-07-03T01:48:14.403Z,75.7
2018-07-03T01:58:29.501Z,73.8
2018-07-03T02:08:44.648Z,71.4
2018-07-03T02:18:58.730Z,70.5
2018-07-03T02:29:12.712Z,68.5
2018-07-03T02:39:29.771Z,68.9
2018-07-03T02:49:44.565Z,64.9
2018-07-03T02:59:59.210Z,55.6
2018-07-03T03:10:13.460Z,54.1
2018-07-03T03:20:27.231Z,58.6
2018-07-03T03:30:42.356Z,54.3
2018-07-03T03:40:57.295Z,52.5
2018-07-03T03:51:11.052Z,48
2018-07-03T04:01:25.828Z,39.9
2018-07-03T04:11:40.499Z,39.6
2018-07-03T04:21:55.461Z,40.4
2018-07-03T04:32:10.237Z,45.5
2018-07-03T04:42:24.783Z,48.8
2018-07-03T04:52:39.553Z,45.7
2018-07-03T05:02:54.885Z,51.8
2018-07-03T05:13:10.593Z,57.8
2018-07-03T05:23:24.908Z,60.1
2018-07-03T05:33:40.362Z,52.1
2018-07-03T05:43:55.661Z,55.2
2018-07-03T05:54:11.211Z,78.6
2018-07-03T06:04:26.331Z,89.4
2018-07-03T06:14:41.028Z,85.4
2018-07-03T06:24:55.358Z,78.4
2018-07-03T06:35:10.710Z,83
2018-07-03T06:45:26.298Z,90.2
2018-07-03T06:55:40.685Z,91.5
2018-07-03T07:05:56.154Z,92.3
2018-07-03T07:16:10.915Z,93
2018-07-03T07:26:25.717Z,93.2
2018-07-03T07:36:39.583Z,86.1
2018-07-03T07:46:54.043Z,79.3
2018-07-03T07:57:08.601Z,72.5
2018-07-03T08:07:22.405Z,69.1
2018-07-03T08:17:36.878Z,66.8
2018-07-03T08:27:52.124Z,64.3
2018-07-03T08:38:07.162Z,61.1
2018-07-03T08:48:22.640Z,56.1
2018-07-03T08:58:37.419Z,54.3
2018-07-03T09:08:52.659Z,53.2
2018-07-03T09:19:07.385Z,52.1
2018-07-03T09:29:22.368Z,49.9
2018-07-03T09:39:37.599Z,49.1
2018-07-03T09:49:52.256Z,47.7
2018-07-03T10:00:06.869Z,47.5
2018-07-03T10:10:22.761Z,45.7
2018-07-03T10:20:37.350Z,45.8
2018-07-03T10:30:52.027Z,44.7
2018-07-03T10:41:07.068Z,42.5
2018-07-03T10:51:22.930Z,41.1
2018-07-03T11:01:37.314Z,40
2018-07-03T11:11:51.857Z,39.9
2018-07-03T11:22:06.491Z,40
2018-07-03T11:32:21.505Z,38.9
2018-07-03T11:42:36.655Z,37.8
2018-07-03T11:52:51.480Z,38.1
2018-07-03T12:03:05.509Z,38.1
2018-07-03T12:13:21.220Z,36.6
2018-07-03T12:23:35.173Z,35.9
2018-07-03T12:33:51.065Z,36.7
2018-07-03T12:44:06.569Z,35.2
2018-07-03T12:54:22.024Z,34.8
2018-07-03T13:04:37.548Z,34
2018-07-03T13:14:51.679Z,33.9
2018-07-03T13:25:06.292Z,32.7
2018-07-03T13:35:21.619Z,33.1
2018-07-03T13:45:35.968Z,32.4
2018-07-03T13:55:50.971Z,32.1
2018-07-03T14:06:05.614Z,32.6
2018-07-03T14:16:21.090Z,31.2
2018-07-03T14:26:35.923Z,30.9
2018-07-03T14:36:50.841Z,31.2
2018-07-03T14:47:06.014Z,31.3
2018-07-03T14:57:21.109Z,31.4
2018-07-03T15:07:36.378Z,31.6
2018-07-03T15:17:50.766Z,31.4
2018-07-03T15:28:06.676Z,31.2
2018-07-03T15:38:22.357Z,31.5
2018-07-03T15:48:37.933Z,31.1
2018-07-03T15:58:52.019Z,32
2018-07-03T16:09:06.593Z,30.9
2018-07-03T16:19:21.538Z,31.2
2018-07-03T16:29:37.203Z,31.2
2018-07-03T16:39:52.401Z,31.1
2018-07-03T16:50:07.353Z,31.1
2018-07-03T17:00:22.062Z,31.4
2018-07-03T17:10:37.638Z,32.1
2018-07-03T17:20:52.017Z,32
2018-07-03T17:31:06.386Z,31.8
2018-07-03T17:41:21.653Z,33.7
2018-07-03T17:51:37.369Z,34.5
2018-07-03T18:01:51.335Z,36.2
2018-07-03T18:12:07.000Z,38.6
2018-07-03T18:22:20.805Z,39.7
2018-07-03T18:32:36.494Z,40.7
2018-07-03T18:42:52.291Z,42.1
2018-07-03T18:53:07.213Z,44.6
2018-07-03T19:03:21.527Z,46.7
2018-07-03T19:13:36.954Z,48.7
2018-07-03T19:23:51.276Z,50.6
2018-07-03T19:34:06.162Z,51.1
2018-07-03T19:44:21.050Z,53.4
2018-07-03T19:54:36.564Z,56.8
2018-07-03T20:04:52.399Z,59.2
2018-07-03T20:15:06.370Z,62.7
2018-07-03T20:25:20.323Z,64.5
2018-07-03T20:35:35.919Z,66.6
2018-07-03T20:45:51.446Z,69.4
2018-07-03T20:56:05.940Z,72
2018-07-03T21:06:21.110Z,73.8
2018-07-03T21:16:35.592Z,75.5
2018-07-03T21:26:49.654Z,77
2018-07-03T21:37:03.825Z,78.1
2018-07-03T21:47:18.945Z,79.1
2018-07-03T21:57:32.948Z,79.2
2018-07-03T22:07:48.371Z,79.5
2018-07-03T22:18:02.774Z,79.8
2018-07-03T22:28:18.381Z,79
2018-07-03T22:38:33.919Z,77.6
2018-07-03T22:48:48.026Z,77
2018-07-03T22:59:03.137Z,76.3
2018-07-03T23:09:17.993Z,73.4
2018-07-03T23:19:31.620Z,67.2
2018-07-03T23:29:45.699Z,65.6
2018-07-03T23:40:01.068Z,65
2018-07-03T23:50:14.994Z,64.2
